Lakefield, Minnesota
Current Conditions -  °F | °C
As of 11:14 PM on Friday 28 Nov 2014 (Local Time) from KMJQ Reporting Station
Clear Clear  
Wind Chill: 10°   Ceiling: Unl
Heat Index: 19°   Visibility: 7mi
Dew Point: 18°   Wind: 7mph
Humidity: 93%   Direction: 120°ESE
Pressure: 29.61"   Gusts: NA
Location:  43.68°N, 95.17°W
Report Text: KMJQ 290514Z AUTO 12006KT 7SM CLR M07/M08 A2961 RMK AO2
Loading
Personal Weather Stations






























Interactive Weather Map New forecast layout! Learn more

10-Day Weather Forecast

Advertisements
Track Severe Weather on mobile